Terminal Aerodrome Forecast
Issued by NWS

Home | Current Version | Previous Version | Text Only | Print | Product List | Glossary On
Versions: 1 2 3 4 5 6 7 8 9 10 11 12 13 14 15 16 17 18 19 20 21 22 23 24 25 26 27 28 29 30 31 32 33 34 35 36 37 38 39 40 41 42 43 44 45 46 47 48
566
FTUS45 KBOU 241533 AAB
TAFBJC
TAF AMD
KBJC 241533Z 2416/2512 34007KT P6SM BKN025 BKN040
     FM241800 02006KT P6SM SCT040 BKN060
     FM242000 07011KT P6SM SCT060 BKN100
     FM250100 VRB06KT P6SM BKN060=

USA.gov is the U.S. government's official web portal to all federal, state and local government web resources and services.